KBAF/BAF METAR and TAF weather

Enter ICAO airport designator
Station Type Date Time Source
KBAF METAR 2020/11/25 21:53 UTC NOAA

KBAF 252153Z 18003KT 10SM OVC095 04/M02 A3025 RMK AO2 SLP249 T00391017


Station Type Date Time Source
KBAF Decoded METAR 2020/11/25 21:53 UTC NOAA

WESTFIELD BARNES MUNICIPAL, MA, United States (KBAF) 42-10N 072-43W 83M
Nov 25, 2020 - 04:53 PM EST / 2020.11.25 2153 UTC
Wind: from the S (180 degrees) at 3 MPH (3 KT):0
Visibility: 10 mile(s):0
Sky conditions: overcast
Temperature: 39.0 F (3.9 C)
Dew Point: 28.9 F (-1.7 C)
Relative Humidity: 66%
Pressure (altimeter): 30.25 in. Hg (1024 hPa)
ob: KBAF 252153Z 18003KT 10SM OVC095 04/M02 A3025 RMK AO2 SLP249 T00391017
cycle: 22

Station Type Date Time Source
KBAF TAF 2020/11/25 18:36 UTC NOAA

TAF KBAF 251733Z 2518/2618 19005KT P6SM SCT030 BKN060
FM260400 17003KT P6SM VCSH OVC050
FM260700 00000KT P6SM -SHRA OVC025
FM260900 00000KT 3SM -SHRA BR OVC008
FM261200 16003KT 1SM SHRA BR OVC003

Example: see airport list